Terminal Aerodrome Forecast
Issued by NWS

Home | Current Version | Previous Version | Text Only | Print | Product List | Glossary On
Versions: 1 2 3 4 5 6 7 8 9 10 11 12 13
956
FTUS45 KABQ 272328
TAFGUP
TAF
KGUP 272328Z 2800/2824 03012G23KT P6SM SCT100
     FM280200 04006KT P6SM FEW120
     FM280400 VRB03KT P6SM SKC
     FM282000 13007KT P6SM VCSH SCT090=

USA.gov is the U.S. government's official web portal to all federal, state and local government web resources and services.